sensor_id;sensor_type;location;lat;lon;timestamp;P1;durP1;ratioP1;P2;durP2;ratioP2
52188;SDS011;38162;45.926;13.608;2023-04-03T00:00:41;1.45;;;0.75;;
52188;SDS011;38162;45.926;13.608;2023-04-03T00:03:06;0.85;;;0.70;;
52188;SDS011;38162;45.926;13.608;2023-04-03T00:05:32;1.45;;;0.90;;
52188;SDS011;38162;45.926;13.608;2023-04-03T00:07:58;2.15;;;0.98;;
52188;SDS011;38162;45.926;13.608;2023-04-03T00:10:23;1.35;;;0.70;;
52188;SDS011;38162;45.926;13.608;2023-04-03T00:12:49;1.15;;;0.70;;
52188;SDS011;38162;45.926;13.608;2023-04-03T00:15:15;1.80;;;0.95;;
52188;SDS011;38162;45.926;13.608;2023-04-03T00:17:41;1.33;;;0.70;;
52188;SDS011;38162;45.926;13.608;2023-04-03T00:20:07;1.10;;;0.63;;
52188;SDS011;38162;45.926;13.608;2023-04-03T00:22:33;1.20;;;1.00;;
52188;SDS011;38162;45.926;13.608;2023-04-03T00:24:59;2.22;;;1.02;;
52188;SDS011;38162;45.926;13.608;2023-04-03T00:27:25;1.50;;;0.85;;
52188;SDS011;38162;45.926;13.608;2023-04-03T00:29:51;1.55;;;0.70;;
52188;SDS011;38162;45.926;13.608;2023-04-03T00:32:16;0.88;;;0.63;;
52188;SDS011;38162;45.926;13.608;2023-04-03T00:34:43;1.17;;;0.70;;
52188;SDS011;38162;45.926;13.608;2023-04-03T00:37:09;3.33;;;0.77;;
52188;SDS011;38162;45.926;13.608;2023-04-03T00:39:35;1.05;;;0.60;;
52188;SDS011;38162;45.926;13.608;2023-04-03T00:42:00;1.52;;;0.68;;
52188;SDS011;38162;45.926;13.608;2023-04-03T00:46:58;0.73;;;0.60;;
52188;SDS011;38162;45.926;13.608;2023-04-03T00:49:24;1.15;;;0.70;;
52188;SDS011;38162;45.926;13.608;2023-04-03T00:51:50;2.83;;;0.80;;
52188;SDS011;38162;45.926;13.608;2023-04-03T00:54:16;1.65;;;0.90;;
52188;SDS011;38162;45.926;13.608;2023-04-03T00:56:42;2.65;;;0.70;;
52188;SDS011;38162;45.926;13.608;2023-04-03T00:59:10;0.75;;;0.50;;
52188;SDS011;38162;45.926;13.608;2023-04-03T01:01:40;0.68;;;0.50;;
52188;SDS011;38162;45.926;13.608;2023-04-03T01:04:24;5.63;;;0.70;;
52188;SDS011;38162;45.926;13.608;2023-04-03T01:06:52;1.45;;;0.50;;
52188;SDS011;38162;45.926;13.608;2023-04-03T01:09:18;1.25;;;0.60;;
52188;SDS011;38162;45.926;13.608;2023-04-03T01:11:44;1.00;;;0.60;;
52188;SDS011;38162;45.926;13.608;2023-04-03T01:14:10;1.60;;;0.60;;
52188;SDS011;38162;45.926;13.608;2023-04-03T01:16:35;2.72;;;0.70;;
52188;SDS011;38162;45.926;13.608;2023-04-03T01:19:01;0.77;;;0.50;;
52188;SDS011;38162;45.926;13.608;2023-04-03T01:21:41;1.33;;;0.80;;
52188;SDS011;38162;45.926;13.608;2023-04-03T01:24:30;1.17;;;0.70;;
52188;SDS011;38162;45.926;13.608;2023-04-03T01:27:02;0.93;;;0.60;;
52188;SDS011;38162;45.926;13.608;2023-04-03T01:29:31;1.42;;;0.70;;
52188;SDS011;38162;45.926;13.608;2023-04-03T01:31:57;1.10;;;0.85;;
52188;SDS011;38162;45.926;13.608;2023-04-03T01:34:25;0.90;;;0.55;;
52188;SDS011;38162;45.926;13.608;2023-04-03T01:36:51;1.48;;;0.75;;
52188;SDS011;38162;45.926;13.608;2023-04-03T01:39:18;4.05;;;0.90;;
52188;SDS011;38162;45.926;13.608;2023-04-03T01:41:44;2.00;;;0.80;;
52188;SDS011;38162;45.926;13.608;2023-04-03T01:44:10;2.20;;;0.90;;
52188;SDS011;38162;45.926;13.608;2023-04-03T01:46:35;1.55;;;0.90;;
52188;SDS011;38162;45.926;13.608;2023-04-03T01:49:02;1.00;;;0.80;;
52188;SDS011;38162;45.926;13.608;2023-04-03T01:51:28;1.73;;;0.80;;
52188;SDS011;38162;45.926;13.608;2023-04-03T01:53:55;1.40;;;1.10;;
52188;SDS011;38162;45.926;13.608;2023-04-03T01:56:21;1.65;;;0.75;;
52188;SDS011;38162;45.926;13.608;2023-04-03T01:58:47;1.88;;;0.90;;
52188;SDS011;38162;45.926;13.608;2023-04-03T02:01:12;1.23;;;0.90;;
52188;SDS011;38162;45.926;13.608;2023-04-03T02:03:38;1.60;;;0.90;;
52188;SDS011;38162;45.926;13.608;2023-04-03T02:06:04;1.05;;;0.80;;
52188;SDS011;38162;45.926;13.608;2023-04-03T02:08:30;4.13;;;0.90;;
52188;SDS011;38162;45.926;13.608;2023-04-03T02:10:56;1.83;;;1.20;;
52188;SDS011;38162;45.926;13.608;2023-04-03T02:13:22;1.60;;;0.80;;
52188;SDS011;38162;45.926;13.608;2023-04-03T02:15:47;1.10;;;0.73;;
52188;SDS011;38162;45.926;13.608;2023-04-03T02:18:14;2.95;;;0.85;;
52188;SDS011;38162;45.926;13.608;2023-04-03T02:20:40;1.23;;;0.90;;
52188;SDS011;38162;45.926;13.608;2023-04-03T02:23:05;3.28;;;0.60;;
52188;SDS011;38162;45.926;13.608;2023-04-03T02:25:31;1.30;;;0.80;;
52188;SDS011;38162;45.926;13.608;2023-04-03T02:27:57;2.65;;;0.90;;
52188;SDS011;38162;45.926;13.608;2023-04-03T02:30:23;1.92;;;0.98;;
52188;SDS011;38162;45.926;13.608;2023-04-03T02:32:49;1.42;;;1.15;;
52188;SDS011;38162;45.926;13.608;2023-04-03T02:35:15;1.98;;;0.93;;
52188;SDS011;38162;45.926;13.608;2023-04-03T02:37:41;2.92;;;1.00;;
52188;SDS011;38162;45.926;13.608;2023-04-03T02:40:07;3.72;;;1.10;;
52188;SDS011;38162;45.926;13.608;2023-04-03T02:42:33;1.52;;;1.25;;
52188;SDS011;38162;45.926;13.608;2023-04-03T02:44:59;2.45;;;1.15;;
52188;SDS011;38162;45.926;13.608;2023-04-03T02:47:27;1.52;;;1.00;;
52188;SDS011;38162;45.926;13.608;2023-04-03T02:49:53;1.65;;;1.10;;
52188;SDS011;38162;45.926;13.608;2023-04-03T02:52:19;1.42;;;1.10;;
52188;SDS011;38162;45.926;13.608;2023-04-03T02:54:45;1.98;;;1.30;;
52188;SDS011;38162;45.926;13.608;2023-04-03T02:57:11;2.58;;;1.15;;
52188;SDS011;38162;45.926;13.608;2023-04-03T02:59:37;1.60;;;0.88;;
52188;SDS011;38162;45.926;13.608;2023-04-03T03:02:09;5.28;;;1.00;;
52188;SDS011;38162;45.926;13.608;2023-04-03T03:04:35;4.22;;;1.55;;
52188;SDS011;38162;45.926;13.608;2023-04-03T03:07:01;1.92;;;1.15;;
52188;SDS011;38162;45.926;13.608;2023-04-03T03:09:27;2.50;;;1.23;;
52188;SDS011;38162;45.926;13.608;2023-04-03T03:11:54;4.40;;;1.17;;
52188;SDS011;38162;45.926;13.608;2023-04-03T03:14:20;2.38;;;1.20;;
52188;SDS011;38162;45.926;13.608;2023-04-03T03:16:46;2.25;;;1.15;;
52188;SDS011;38162;45.926;13.608;2023-04-03T03:19:11;2.47;;;1.20;;
52188;SDS011;38162;45.926;13.608;2023-04-03T03:21:37;1.45;;;1.20;;
52188;SDS011;38162;45.926;13.608;2023-04-03T03:24:03;3.78;;;1.20;;
52188;SDS011;38162;45.926;13.608;2023-04-03T03:26:29;2.85;;;1.10;;
52188;SDS011;38162;45.926;13.608;2023-04-03T03:28:55;2.58;;;1.20;;
52188;SDS011;38162;45.926;13.608;2023-04-03T03:31:21;2.33;;;1.20;;
52188;SDS011;38162;45.926;13.608;2023-04-03T03:33:46;2.88;;;1.10;;
52188;SDS011;38162;45.926;13.608;2023-04-03T03:36:12;1.90;;;1.30;;
52188;SDS011;38162;45.926;13.608;2023-04-03T03:38:38;1.42;;;1.10;;
52188;SDS011;38162;45.926;13.608;2023-04-03T03:41:04;2.30;;;1.13;;
52188;SDS011;38162;45.926;13.608;2023-04-03T03:43:30;3.08;;;1.30;;
52188;SDS011;38162;45.926;13.608;2023-04-03T03:45:56;1.85;;;1.20;;
52188;SDS011;38162;45.926;13.608;2023-04-03T03:48:22;1.25;;;1.10;;
52188;SDS011;38162;45.926;13.608;2023-04-03T03:50:48;2.83;;;0.98;;
52188;SDS011;38162;45.926;13.608;2023-04-03T03:53:14;3.72;;;1.00;;
52188;SDS011;38162;45.926;13.608;2023-04-03T03:55:40;3.05;;;0.90;;
52188;SDS011;38162;45.926;13.608;2023-04-03T03:58:06;1.65;;;1.10;;
52188;SDS011;38162;45.926;13.608;2023-04-03T04:00:32;1.65;;;1.30;;
52188;SDS011;38162;45.926;13.608;2023-04-03T04:02:58;2.53;;;1.20;;
52188;SDS011;38162;45.926;13.608;2023-04-03T04:05:23;1.55;;;1.23;;
52188;SDS011;38162;45.926;13.608;2023-04-03T04:07:49;3.40;;;1.25;;
52188;SDS011;38162;45.926;13.608;2023-04-03T04:10:16;4.38;;;1.42;;
52188;SDS011;38162;45.926;13.608;2023-04-03T04:12:42;1.83;;;1.20;;
52188;SDS011;38162;45.926;13.608;2023-04-03T04:15:07;2.13;;;1.35;;
52188;SDS011;38162;45.926;13.608;2023-04-03T04:17:34;1.58;;;1.20;;
52188;SDS011;38162;45.926;13.608;2023-04-03T04:20:00;1.40;;;0.93;;
52188;SDS011;38162;45.926;13.608;2023-04-03T04:22:27;3.70;;;1.50;;
52188;SDS011;38162;45.926;13.608;2023-04-03T04:24:53;39.22;;;3.60;;
52188;SDS011;38162;45.926;13.608;2023-04-03T04:27:19;2.30;;;1.48;;
52188;SDS011;38162;45.926;13.608;2023-04-03T04:29:45;5.07;;;1.63;;
52188;SDS011;38162;45.926;13.608;2023-04-03T04:32:10;2.53;;;1.40;;
52188;SDS011;38162;45.926;13.608;2023-04-03T04:34:36;1.75;;;1.10;;
52188;SDS011;38162;45.926;13.608;2023-04-03T04:37:02;1.75;;;1.10;;
52188;SDS011;38162;45.926;13.608;2023-04-03T04:39:28;3.35;;;1.20;;
52188;SDS011;38162;45.926;13.608;2023-04-03T04:41:54;1.93;;;1.20;;
52188;SDS011;38162;45.926;13.608;2023-04-03T04:44:20;1.92;;;1.25;;
52188;SDS011;38162;45.926;13.608;2023-04-03T04:46:45;3.30;;;1.30;;
52188;SDS011;38162;45.926;13.608;2023-04-03T04:49:11;1.77;;;1.27;;
52188;SDS011;38162;45.926;13.608;2023-04-03T04:51:37;1.85;;;1.20;;
52188;SDS011;38162;45.926;13.608;2023-04-03T04:54:03;3.22;;;1.25;;
52188;SDS011;38162;45.926;13.608;2023-04-03T04:56:28;1.65;;;1.27;;
52188;SDS011;38162;45.926;13.608;2023-04-03T04:58:54;1.85;;;1.13;;
52188;SDS011;38162;45.926;13.608;2023-04-03T05:01:20;2.57;;;1.27;;
52188;SDS011;38162;45.926;13.608;2023-04-03T05:03:46;4.63;;;1.53;;
52188;SDS011;38162;45.926;13.608;2023-04-03T05:06:13;2.15;;;1.25;;
52188;SDS011;38162;45.926;13.608;2023-04-03T05:08:38;2.27;;;1.30;;
52188;SDS011;38162;45.926;13.608;2023-04-03T05:11:04;1.33;;;1.10;;
52188;SDS011;38162;45.926;13.608;2023-04-03T05:13:30;3.10;;;1.40;;
52188;SDS011;38162;45.926;13.608;2023-04-03T05:15:56;1.95;;;1.27;;
52188;SDS011;38162;45.926;13.608;2023-04-03T05:18:21;2.20;;;1.50;;
52188;SDS011;38162;45.926;13.608;2023-04-03T05:20:50;2.60;;;1.30;;
52188;SDS011;38162;45.926;13.608;2023-04-03T05:23:16;1.73;;;1.30;;
52188;SDS011;38162;45.926;13.608;2023-04-03T05:25:42;4.13;;;1.50;;
52188;SDS011;38162;45.926;13.608;2023-04-03T05:28:10;2.13;;;1.50;;
52188;SDS011;38162;45.926;13.608;2023-04-03T05:30:36;2.37;;;1.40;;
52188;SDS011;38162;45.926;13.608;2023-04-03T05:33:02;1.77;;;1.10;;
52188;SDS011;38162;45.926;13.608;2023-04-03T05:35:28;1.60;;;1.20;;
52188;SDS011;38162;45.926;13.608;2023-04-03T05:37:54;1.70;;;1.05;;
52188;SDS011;38162;45.926;13.608;2023-04-03T05:40:20;1.80;;;1.20;;
52188;SDS011;38162;45.926;13.608;2023-04-03T05:42:46;2.00;;;1.07;;
52188;SDS011;38162;45.926;13.608;2023-04-03T05:45:12;1.40;;;1.10;;
52188;SDS011;38162;45.926;13.608;2023-04-03T05:47:37;3.83;;;1.35;;
52188;SDS011;38162;45.926;13.608;2023-04-03T05:50:03;2.43;;;1.40;;
52188;SDS011;38162;45.926;13.608;2023-04-03T05:52:31;2.55;;;1.10;;
52188;SDS011;38162;45.926;13.608;2023-04-03T05:55:00;2.60;;;1.43;;
52188;SDS011;38162;45.926;13.608;2023-04-03T05:57:25;3.73;;;1.20;;
52188;SDS011;38162;45.926;13.608;2023-04-03T05:59:51;2.50;;;1.50;;
52188;SDS011;38162;45.926;13.608;2023-04-03T06:02:18;7.27;;;1.60;;
52188;SDS011;38162;45.926;13.608;2023-04-03T06:04:45;4.17;;;1.07;;
52188;SDS011;38162;45.926;13.608;2023-04-03T06:07:16;2.15;;;1.40;;
52188;SDS011;38162;45.926;13.608;2023-04-03T06:09:45;2.83;;;1.20;;
52188;SDS011;38162;45.926;13.608;2023-04-03T06:12:11;2.45;;;1.10;;
52188;SDS011;38162;45.926;13.608;2023-04-03T06:14:37;1.70;;;1.20;;
52188;SDS011;38162;45.926;13.608;2023-04-03T06:17:03;2.33;;;1.40;;
52188;SDS011;38162;45.926;13.608;2023-04-03T06:19:29;2.00;;;1.10;;
52188;SDS011;38162;45.926;13.608;2023-04-03T06:21:56;3.70;;;1.47;;
52188;SDS011;38162;45.926;13.608;2023-04-03T06:24:21;2.67;;;1.50;;
52188;SDS011;38162;45.926;13.608;2023-04-03T06:26:49;1.63;;;1.20;;
52188;SDS011;38162;45.926;13.608;2023-04-03T06:29:16;1.83;;;1.10;;
52188;SDS011;38162;45.926;13.608;2023-04-03T06:31:43;2.03;;;1.20;;
52188;SDS011;38162;45.926;13.608;2023-04-03T06:34:10;1.97;;;1.10;;
52188;SDS011;38162;45.926;13.608;2023-04-03T06:36:36;4.10;;;1.20;;
52188;SDS011;38162;45.926;13.608;2023-04-03T06:39:02;3.47;;;1.20;;
52188;SDS011;38162;45.926;13.608;2023-04-03T06:41:28;4.00;;;2.00;;
52188;SDS011;38162;45.926;13.608;2023-04-03T06:43:54;2.70;;;1.27;;
52188;SDS011;38162;45.926;13.608;2023-04-03T06:46:22;1.43;;;1.20;;
52188;SDS011;38162;45.926;13.608;2023-04-03T06:48:48;2.25;;;1.23;;
52188;SDS011;38162;45.926;13.608;2023-04-03T06:51:18;2.40;;;1.40;;
52188;SDS011;38162;45.926;13.608;2023-04-03T06:53:46;1.87;;;1.20;;
52188;SDS011;38162;45.926;13.608;2023-04-03T06:56:13;3.17;;;1.60;;
52188;SDS011;38162;45.926;13.608;2023-04-03T06:58:39;5.55;;;1.50;;
52188;SDS011;38162;45.926;13.608;2023-04-03T07:01:06;1.92;;;1.20;;
52188;SDS011;38162;45.926;13.608;2023-04-03T07:03:33;1.65;;;1.20;;
52188;SDS011;38162;45.926;13.608;2023-04-03T07:05:59;1.45;;;1.10;;
52188;SDS011;38162;45.926;13.608;2023-04-03T07:08:24;3.65;;;1.13;;
52188;SDS011;38162;45.926;13.608;2023-04-03T07:10:51;3.00;;;1.42;;
52188;SDS011;38162;45.926;13.608;2023-04-03T07:13:17;10.40;;;1.35;;
52188;SDS011;38162;45.926;13.608;2023-04-03T07:15:42;1.10;;;0.93;;
52188;SDS011;38162;45.926;13.608;2023-04-03T07:18:09;2.35;;;1.25;;
52188;SDS011;38162;45.926;13.608;2023-04-03T07:20:34;4.70;;;1.20;;
52188;SDS011;38162;45.926;13.608;2023-04-03T07:23:00;2.17;;;1.30;;
52188;SDS011;38162;45.926;13.608;2023-04-03T07:25:27;6.37;;;1.20;;
52188;SDS011;38162;45.926;13.608;2023-04-03T07:27:53;1.77;;;0.90;;
52188;SDS011;38162;45.926;13.608;2023-04-03T07:30:19;2.15;;;1.27;;
52188;SDS011;38162;45.926;13.608;2023-04-03T07:32:45;1.50;;;0.93;;
52188;SDS011;38162;45.926;13.608;2023-04-03T07:35:12;1.90;;;1.05;;
52188;SDS011;38162;45.926;13.608;2023-04-03T07:37:37;1.80;;;1.02;;
52188;SDS011;38162;45.926;13.608;2023-04-03T07:40:04;2.78;;;1.10;;
52188;SDS011;38162;45.926;13.608;2023-04-03T07:42:31;2.83;;;1.10;;
52188;SDS011;38162;45.926;13.608;2023-04-03T07:44:57;1.77;;;1.10;;
52188;SDS011;38162;45.926;13.608;2023-04-03T07:47:23;5.10;;;1.27;;
52188;SDS011;38162;45.926;13.608;2023-04-03T07:49:49;2.92;;;1.20;;
52188;SDS011;38162;45.926;13.608;2023-04-03T07:52:14;3.45;;;0.98;;
52188;SDS011;38162;45.926;13.608;2023-04-03T07:54:41;3.60;;;1.10;;
52188;SDS011;38162;45.926;13.608;2023-04-03T07:57:07;1.80;;;1.17;;
52188;SDS011;38162;45.926;13.608;2023-04-03T07:59:33;2.65;;;1.00;;
52188;SDS011;38162;45.926;13.608;2023-04-03T08:01:58;3.30;;;1.40;;
52188;SDS011;38162;45.926;13.608;2023-04-03T08:04:24;1.83;;;1.17;;
52188;SDS011;38162;45.926;13.608;2023-04-03T08:06:51;1.75;;;0.95;;
52188;SDS011;38162;45.926;13.608;2023-04-03T08:09:17;4.07;;;1.15;;
52188;SDS011;38162;45.926;13.608;2023-04-03T08:11:44;1.50;;;1.00;;
52188;SDS011;38162;45.926;13.608;2023-04-03T08:14:10;1.77;;;0.98;;
52188;SDS011;38162;45.926;13.608;2023-04-03T08:16:42;1.63;;;1.05;;
52188;SDS011;38162;45.926;13.608;2023-04-03T08:19:08;2.80;;;1.23;;
52188;SDS011;38162;45.926;13.608;2023-04-03T08:21:35;2.33;;;1.30;;
52188;SDS011;38162;45.926;13.608;2023-04-03T08:24:01;2.03;;;1.02;;
52188;SDS011;38162;45.926;13.608;2023-04-03T08:26:28;2.03;;;1.10;;
52188;SDS011;38162;45.926;13.608;2023-04-03T08:28:54;1.20;;;0.88;;
52188;SDS011;38162;45.926;13.608;2023-04-03T08:31:19;1.98;;;0.90;;
52188;SDS011;38162;45.926;13.608;2023-04-03T08:33:45;2.42;;;1.05;;
52188;SDS011;38162;45.926;13.608;2023-04-03T08:36:20;2.85;;;1.02;;
52188;SDS011;38162;45.926;13.608;2023-04-03T08:38:53;1.33;;;0.80;;
52188;SDS011;38162;45.926;13.608;2023-04-03T08:46:38;4.22;;;0.85;;
52188;SDS011;38162;45.926;13.608;2023-04-03T08:49:18;1.58;;;1.00;;
52188;SDS011;38162;45.926;13.608;2023-04-03T08:51:53;3.95;;;1.00;;
52188;SDS011;38162;45.926;13.608;2023-04-03T08:54:35;2.17;;;1.00;;
52188;SDS011;38162;45.926;13.608;2023-04-03T08:57:09;1.02;;;0.90;;
52188;SDS011;38162;45.926;13.608;2023-04-03T08:59:37;5.22;;;1.70;;
52188;SDS011;38162;45.926;13.608;2023-04-03T09:02:16;2.10;;;1.38;;
52188;SDS011;38162;45.926;13.608;2023-04-03T09:04:45;2.95;;;2.10;;
52188;SDS011;38162;45.926;13.608;2023-04-03T09:07:16;2.95;;;1.15;;
52188;SDS011;38162;45.926;13.608;2023-04-03T09:09:51;1.50;;;1.20;;
52188;SDS011;38162;45.926;13.608;2023-04-03T09:12:21;1.85;;;1.05;;
52188;SDS011;38162;45.926;13.608;2023-04-03T09:29:08;1.75;;;1.17;;
52188;SDS011;38162;45.926;13.608;2023-04-03T09:31:40;3.40;;;0.98;;
52188;SDS011;38162;45.926;13.608;2023-04-03T09:36:57;1.10;;;0.80;;
52188;SDS011;38162;45.926;13.608;2023-04-03T09:39:30;3.50;;;0.95;;
52188;SDS011;38162;45.926;13.608;2023-04-03T09:44:32;2.35;;;1.20;;
52188;SDS011;38162;45.926;13.608;2023-04-03T09:47:22;1.58;;;0.95;;
52188;SDS011;38162;45.926;13.608;2023-04-03T09:49:50;2.63;;;0.93;;
52188;SDS011;38162;45.926;13.608;2023-04-03T09:52:34;4.35;;;0.98;;
52188;SDS011;38162;45.926;13.608;2023-04-03T09:55:06;3.72;;;1.02;;
52188;SDS011;38162;45.926;13.608;2023-04-03T09:57:33;1.52;;;1.05;;
52188;SDS011;38162;45.926;13.608;2023-04-03T10:00:00;1.33;;;1.05;;
52188;SDS011;38162;45.926;13.608;2023-04-03T10:02:39;2.45;;;1.00;;
52188;SDS011;38162;45.926;13.608;2023-04-03T10:07:51;0.80;;;0.65;;
52188;SDS011;38162;45.926;13.608;2023-04-03T10:12:45;7.78;;;0.90;;
52188;SDS011;38162;45.926;13.608;2023-04-03T10:15:11;1.70;;;0.85;;
52188;SDS011;38162;45.926;13.608;2023-04-03T10:23:14;1.60;;;0.90;;
52188;SDS011;38162;45.926;13.608;2023-04-03T10:39:50;1.45;;;0.85;;
52188;SDS011;38162;45.926;13.608;2023-04-03T10:42:18;3.92;;;0.93;;
52188;SDS011;38162;45.926;13.608;2023-04-03T10:48:02;1.67;;;0.90;;
52188;SDS011;38162;45.926;13.608;2023-04-03T10:53:36;2.13;;;0.90;;
52188;SDS011;38162;45.926;13.608;2023-04-03T10:58:56;1.10;;;0.68;;
52188;SDS011;38162;45.926;13.608;2023-04-03T11:01:44;1.20;;;0.65;;
52188;SDS011;38162;45.926;13.608;2023-04-03T11:04:13;3.25;;;1.75;;
52188;SDS011;38162;45.926;13.608;2023-04-03T11:07:03;1.38;;;0.50;;
52188;SDS011;38162;45.926;13.608;2023-04-03T11:09:34;1.33;;;0.70;;
52188;SDS011;38162;45.926;13.608;2023-04-03T11:12:10;2.33;;;0.90;;
52188;SDS011;38162;45.926;13.608;2023-04-03T11:14:41;2.97;;;0.75;;
52188;SDS011;38162;45.926;13.608;2023-04-03T11:22:26;1.13;;;0.70;;
52188;SDS011;38162;45.926;13.608;2023-04-03T11:25:05;1.00;;;0.70;;
52188;SDS011;38162;45.926;13.608;2023-04-03T11:27:59;0.70;;;0.65;;
52188;SDS011;38162;45.926;13.608;2023-04-03T11:31:15;1.38;;;0.60;;
52188;SDS011;38162;45.926;13.608;2023-04-03T11:36:38;3.38;;;0.90;;
52188;SDS011;38162;45.926;13.608;2023-04-03T11:39:20;8.82;;;1.00;;
52188;SDS011;38162;45.926;13.608;2023-04-03T11:42:45;2.85;;;0.70;;
52188;SDS011;38162;45.926;13.608;2023-04-03T11:44:50;10.75;;;0.85;;
52188;SDS011;38162;45.926;13.608;2023-04-03T11:47:44;3.58;;;0.57;;
52188;SDS011;38162;45.926;13.608;2023-04-03T11:50:48;0.70;;;0.47;;
52188;SDS011;38162;45.926;13.608;2023-04-03T12:22:06;1.08;;;0.50;;
52188;SDS011;38162;45.926;13.608;2023-04-03T12:24:35;2.10;;;0.50;;
52188;SDS011;38162;45.926;13.608;2023-04-03T12:32:41;0.45;;;0.38;;
52188;SDS011;38162;45.926;13.608;2023-04-03T12:35:38;2.13;;;0.50;;
52188;SDS011;38162;45.926;13.608;2023-04-03T12:46:28;1.90;;;0.43;;
52188;SDS011;38162;45.926;13.608;2023-04-03T12:49:02;1.20;;;0.50;;
52188;SDS011;38162;45.926;13.608;2023-04-03T12:51:51;1.15;;;0.60;;
52188;SDS011;38162;45.926;13.608;2023-04-03T12:54:29;0.80;;;0.60;;
52188;SDS011;38162;45.926;13.608;2023-04-03T12:57:11;4.00;;;0.50;;
52188;SDS011;38162;45.926;13.608;2023-04-03T12:59:40;1.60;;;0.35;;
52188;SDS011;38162;45.926;13.608;2023-04-03T13:04:53;0.98;;;0.47;;
52188;SDS011;38162;45.926;13.608;2023-04-03T13:10:01;0.93;;;0.47;;
52188;SDS011;38162;45.926;13.608;2023-04-03T13:12:29;0.80;;;0.50;;
52188;SDS011;38162;45.926;13.608;2023-04-03T13:14:57;0.93;;;0.47;;
52188;SDS011;38162;45.926;13.608;2023-04-03T13:17:25;1.23;;;0.60;;
52188;SDS011;38162;45.926;13.608;2023-04-03T13:19:52;3.20;;;0.38;;
52188;SDS011;38162;45.926;13.608;2023-04-03T13:24:56;1.10;;;0.60;;
52188;SDS011;38162;45.926;13.608;2023-04-03T13:27:26;3.10;;;0.52;;
52188;SDS011;38162;45.926;13.608;2023-04-03T13:29:54;1.13;;;0.50;;
52188;SDS011;38162;45.926;13.608;2023-04-03T13:32:24;1.25;;;0.30;;
52188;SDS011;38162;45.926;13.608;2023-04-03T13:34:51;2.45;;;0.70;;
52188;SDS011;38162;45.926;13.608;2023-04-03T13:37:22;0.40;;;0.30;;
52188;SDS011;38162;45.926;13.608;2023-04-03T13:42:34;2.13;;;0.63;;
52188;SDS011;38162;45.926;13.608;2023-04-03T13:47:38;1.50;;;0.65;;
52188;SDS011;38162;45.926;13.608;2023-04-03T13:52:48;1.40;;;0.60;;
52188;SDS011;38162;45.926;13.608;2023-04-03T13:58:03;0.60;;;0.40;;
52188;SDS011;38162;45.926;13.608;2023-04-03T14:00:55;0.55;;;0.40;;
52188;SDS011;38162;45.926;13.608;2023-04-03T14:04:00;1.00;;;0.40;;
52188;SDS011;38162;45.926;13.608;2023-04-03T14:06:21;0.52;;;0.43;;
52188;SDS011;38162;45.926;13.608;2023-04-03T14:08:47;12.75;;;0.70;;
52188;SDS011;38162;45.926;13.608;2023-04-03T14:14:16;0.50;;;0.50;;
52188;SDS011;38162;45.926;13.608;2023-04-03T14:16:46;0.52;;;0.40;;
52188;SDS011;38162;45.926;13.608;2023-04-03T14:19:32;1.00;;;0.50;;
52188;SDS011;38162;45.926;13.608;2023-04-03T14:21:59;3.47;;;0.50;;
52188;SDS011;38162;45.926;13.608;2023-04-03T14:24:30;1.10;;;0.35;;
52188;SDS011;38162;45.926;13.608;2023-04-03T14:26:57;0.40;;;0.40;;
52188;SDS011;38162;45.926;13.608;2023-04-03T14:29:23;2.67;;;0.50;;
52188;SDS011;38162;45.926;13.608;2023-04-03T14:31:49;0.82;;;0.43;;
52188;SDS011;38162;45.926;13.608;2023-04-03T14:34:15;0.28;;;0.28;;
52188;SDS011;38162;45.926;13.608;2023-04-03T14:36:42;0.63;;;0.40;;
52188;SDS011;38162;45.926;13.608;2023-04-03T14:39:15;0.82;;;0.50;;
52188;SDS011;38162;45.926;13.608;2023-04-03T14:41:43;9.05;;;0.65;;
52188;SDS011;38162;45.926;13.608;2023-04-03T14:44:09;0.75;;;0.40;;
52188;SDS011;38162;45.926;13.608;2023-04-03T14:46:36;1.15;;;0.52;;
52188;SDS011;38162;45.926;13.608;2023-04-03T14:49:08;2.20;;;0.95;;
52188;SDS011;38162;45.926;13.608;2023-04-03T14:51:45;1.40;;;0.63;;
52188;SDS011;38162;45.926;13.608;2023-04-03T14:54:12;0.63;;;0.50;;
52188;SDS011;38162;45.926;13.608;2023-04-03T14:56:40;0.95;;;0.50;;
52188;SDS011;38162;45.926;13.608;2023-04-03T14:59:08;0.40;;;0.30;;
52188;SDS011;38162;45.926;13.608;2023-04-03T15:01:36;1.67;;;0.63;;
52188;SDS011;38162;45.926;13.608;2023-04-03T15:04:05;1.00;;;0.55;;
52188;SDS011;38162;45.926;13.608;2023-04-03T15:06:35;2.47;;;0.40;;
52188;SDS011;38162;45.926;13.608;2023-04-03T15:09:01;2.92;;;0.70;;
52188;SDS011;38162;45.926;13.608;2023-04-03T15:11:28;5.50;;;0.70;;
52188;SDS011;38162;45.926;13.608;2023-04-03T15:13:54;3.40;;;0.50;;
52188;SDS011;38162;45.926;13.608;2023-04-03T15:16:19;0.70;;;0.40;;
52188;SDS011;38162;45.926;13.608;2023-04-03T15:18:46;5.20;;;0.90;;
52188;SDS011;38162;45.926;13.608;2023-04-03T15:21:14;2.25;;;0.63;;
52188;SDS011;38162;45.926;13.608;2023-04-03T15:23:40;6.88;;;0.60;;
52188;SDS011;38162;45.926;13.608;2023-04-03T15:26:06;0.88;;;0.65;;
52188;SDS011;38162;45.926;13.608;2023-04-03T15:28:33;1.17;;;0.60;;
52188;SDS011;38162;45.926;13.608;2023-04-03T15:31:01;3.63;;;0.73;;
52188;SDS011;38162;45.926;13.608;2023-04-03T15:33:28;1.60;;;0.60;;
52188;SDS011;38162;45.926;13.608;2023-04-03T15:35:54;3.40;;;0.60;;
52188;SDS011;38162;45.926;13.608;2023-04-03T15:38:20;4.05;;;0.90;;
52188;SDS011;38162;45.926;13.608;2023-04-03T15:40:45;1.40;;;0.80;;
52188;SDS011;38162;45.926;13.608;2023-04-03T15:43:14;1.65;;;0.77;;
52188;SDS011;38162;45.926;13.608;2023-04-03T15:45:41;3.63;;;0.73;;
52188;SDS011;38162;45.926;13.608;2023-04-03T15:48:08;1.42;;;0.68;;
52188;SDS011;38162;45.926;13.608;2023-04-03T15:50:35;1.55;;;0.68;;
52188;SDS011;38162;45.926;13.608;2023-04-03T15:53:01;5.15;;;0.73;;
52188;SDS011;38162;45.926;13.608;2023-04-03T15:55:28;1.63;;;0.75;;
52188;SDS011;38162;45.926;13.608;2023-04-03T15:57:56;2.10;;;1.08;;
52188;SDS011;38162;45.926;13.608;2023-04-03T16:00:22;2.10;;;1.08;;
52188;SDS011;38162;45.926;13.608;2023-04-03T16:02:50;2.35;;;0.90;;
52188;SDS011;38162;45.926;13.608;2023-04-03T16:05:20;1.55;;;0.98;;
52188;SDS011;38162;45.926;13.608;2023-04-03T16:07:46;2.78;;;0.80;;
52188;SDS011;38162;45.926;13.608;2023-04-03T16:10:13;2.45;;;0.70;;
52188;SDS011;38162;45.926;13.608;2023-04-03T16:12:41;1.25;;;0.75;;
52188;SDS011;38162;45.926;13.608;2023-04-03T16:15:07;1.60;;;1.00;;
52188;SDS011;38162;45.926;13.608;2023-04-03T16:17:33;3.35;;;0.90;;
52188;SDS011;38162;45.926;13.608;2023-04-03T16:20:00;3.67;;;1.10;;
52188;SDS011;38162;45.926;13.608;2023-04-03T16:22:27;2.25;;;0.90;;
52188;SDS011;38162;45.926;13.608;2023-04-03T16:24:54;1.17;;;0.75;;
52188;SDS011;38162;45.926;13.608;2023-04-03T16:27:20;1.92;;;1.15;;
52188;SDS011;38162;45.926;13.608;2023-04-03T16:29:47;2.88;;;0.70;;
52188;SDS011;38162;45.926;13.608;2023-04-03T16:32:13;2.20;;;0.73;;
52188;SDS011;38162;45.926;13.608;2023-04-03T16:34:39;2.08;;;1.00;;
52188;SDS011;38162;45.926;13.608;2023-04-03T16:37:05;1.73;;;0.85;;
52188;SDS011;38162;45.926;13.608;2023-04-03T16:39:33;2.42;;;1.13;;
52188;SDS011;38162;45.926;13.608;2023-04-03T16:42:00;1.30;;;1.00;;
52188;SDS011;38162;45.926;13.608;2023-04-03T16:44:26;1.42;;;0.85;;
52188;SDS011;38162;45.926;13.608;2023-04-03T16:46:52;1.88;;;1.38;;
52188;SDS011;38162;45.926;13.608;2023-04-03T16:49:18;2.63;;;1.52;;
52188;SDS011;38162;45.926;13.608;2023-04-03T16:51:44;8.32;;;6.18;;
52188;SDS011;38162;45.926;13.608;2023-04-03T16:54:10;7.32;;;4.45;;